sensor_id;sensor_type;location;lat;lon;timestamp;temperature;humidity
15083;DHT22;7640;53.116;6.878;2023-02-18T00:01:42;8.50;99.90
15083;DHT22;7640;53.116;6.878;2023-02-18T00:04:11;8.50;99.90
15083;DHT22;7640;53.116;6.878;2023-02-18T00:06:39;8.50;99.90
15083;DHT22;7640;53.116;6.878;2023-02-18T00:09:07;8.50;99.90
15083;DHT22;7640;53.116;6.878;2023-02-18T00:11:37;8.50;99.90
15083;DHT22;7640;53.116;6.878;2023-02-18T00:14:12;8.50;99.90
15083;DHT22;7640;53.116;6.878;2023-02-18T00:16:42;8.60;99.90
15083;DHT22;7640;53.116;6.878;2023-02-18T00:19:13;8.60;99.90
15083;DHT22;7640;53.116;6.878;2023-02-18T00:21:44;8.60;99.90
15083;DHT22;7640;53.116;6.878;2023-02-18T00:24:14;8.60;99.90
15083;DHT22;7640;53.116;6.878;2023-02-18T00:26:43;8.60;99.90
15083;DHT22;7640;53.116;6.878;2023-02-18T00:29:13;8.60;99.90
15083;DHT22;7640;53.116;6.878;2023-02-18T00:31:41;8.60;99.90
15083;DHT22;7640;53.116;6.878;2023-02-18T00:34:10;8.60;99.90
15083;DHT22;7640;53.116;6.878;2023-02-18T00:36:40;8.60;99.90
15083;DHT22;7640;53.116;6.878;2023-02-18T00:39:09;8.60;99.90
15083;DHT22;7640;53.116;6.878;2023-02-18T00:41:38;8.70;99.90
15083;DHT22;7640;53.116;6.878;2023-02-18T00:44:07;8.70;99.90
15083;DHT22;7640;53.116;6.878;2023-02-18T00:46:37;8.60;99.90
15083;DHT22;7640;53.116;6.878;2023-02-18T00:49:06;8.60;99.90
15083;DHT22;7640;53.116;6.878;2023-02-18T00:51:35;8.60;99.90
15083;DHT22;7640;53.116;6.878;2023-02-18T00:54:04;8.50;99.90
15083;DHT22;7640;53.116;6.878;2023-02-18T00:56:32;8.50;99.90
15083;DHT22;7640;53.116;6.878;2023-02-18T00:59:01;8.50;99.90
15083;DHT22;7640;53.116;6.878;2023-02-18T01:01:29;8.50;99.90
15083;DHT22;7640;53.116;6.878;2023-02-18T01:03:59;8.40;99.90
15083;DHT22;7640;53.116;6.878;2023-02-18T01:06:28;8.40;99.90
15083;DHT22;7640;53.116;6.878;2023-02-18T01:08:56;8.40;99.90
15083;DHT22;7640;53.116;6.878;2023-02-18T01:11:24;8.30;99.90
15083;DHT22;7640;53.116;6.878;2023-02-18T01:13:53;8.30;99.90
15083;DHT22;7640;53.116;6.878;2023-02-18T01:16:22;8.20;99.90
15083;DHT22;7640;53.116;6.878;2023-02-18T01:18:51;8.20;99.90
15083;DHT22;7640;53.116;6.878;2023-02-18T01:21:21;8.10;99.90
15083;DHT22;7640;53.116;6.878;2023-02-18T01:23:49;8.10;99.90
15083;DHT22;7640;53.116;6.878;2023-02-18T01:26:17;8.10;99.90
15083;DHT22;7640;53.116;6.878;2023-02-18T01:28:46;8.10;99.90
15083;DHT22;7640;53.116;6.878;2023-02-18T01:31:16;8.10;99.90
15083;DHT22;7640;53.116;6.878;2023-02-18T01:33:44;8.20;99.90
15083;DHT22;7640;53.116;6.878;2023-02-18T01:36:13;8.20;99.90
15083;DHT22;7640;53.116;6.878;2023-02-18T01:38:42;8.20;99.90
15083;DHT22;7640;53.116;6.878;2023-02-18T01:41:11;8.30;99.90
15083;DHT22;7640;53.116;6.878;2023-02-18T01:43:39;8.30;99.90
15083;DHT22;7640;53.116;6.878;2023-02-18T01:46:14;8.40;99.90
15083;DHT22;7640;53.116;6.878;2023-02-18T01:48:49;8.40;99.90
15083;DHT22;7640;53.116;6.878;2023-02-18T01:51:25;8.40;99.90
15083;DHT22;7640;53.116;6.878;2023-02-18T01:53:59;8.50;99.90
15083;DHT22;7640;53.116;6.878;2023-02-18T01:56:34;8.50;99.90
15083;DHT22;7640;53.116;6.878;2023-02-18T01:59:06;8.50;99.90
15083;DHT22;7640;53.116;6.878;2023-02-18T02:01:38;8.50;99.90
15083;DHT22;7640;53.116;6.878;2023-02-18T02:04:10;8.60;99.90
15083;DHT22;7640;53.116;6.878;2023-02-18T02:06:38;8.60;99.90
15083;DHT22;7640;53.116;6.878;2023-02-18T02:09:11;8.60;99.90
15083;DHT22;7640;53.116;6.878;2023-02-18T02:11:56;8.60;99.90
15083;DHT22;7640;53.116;6.878;2023-02-18T02:14:58;8.70;99.90
15083;DHT22;7640;53.116;6.878;2023-02-18T02:17:40;8.70;99.90
15083;DHT22;7640;53.116;6.878;2023-02-18T02:20:42;8.70;99.90
15083;DHT22;7640;53.116;6.878;2023-02-18T02:27:04;8.80;99.90
15083;DHT22;7640;53.116;6.878;2023-02-18T02:33:41;8.80;99.90
15083;DHT22;7640;53.116;6.878;2023-02-18T02:36:22;8.80;99.90
15083;DHT22;7640;53.116;6.878;2023-02-18T02:38:57;8.80;99.90
15083;DHT22;7640;53.116;6.878;2023-02-18T02:41:40;8.90;99.90
15083;DHT22;7640;53.116;6.878;2023-02-18T02:44:19;8.90;99.90
15083;DHT22;7640;53.116;6.878;2023-02-18T02:46:51;8.90;99.90
15083;DHT22;7640;53.116;6.878;2023-02-18T02:49:31;8.90;99.90
15083;DHT22;7640;53.116;6.878;2023-02-18T02:52:08;8.90;99.90
15083;DHT22;7640;53.116;6.878;2023-02-18T02:54:40;8.90;99.90
15083;DHT22;7640;53.116;6.878;2023-02-18T03:00:20;9.00;99.90
15083;DHT22;7640;53.116;6.878;2023-02-18T03:03:02;9.00;99.90
15083;DHT22;7640;53.116;6.878;2023-02-18T03:05:42;9.00;99.90
15083;DHT22;7640;53.116;6.878;2023-02-18T03:08:28;9.00;99.90
15083;DHT22;7640;53.116;6.878;2023-02-18T03:11:04;9.00;99.90
15083;DHT22;7640;53.116;6.878;2023-02-18T03:13:52;9.00;99.90
15083;DHT22;7640;53.116;6.878;2023-02-18T03:16:27;9.00;99.90
15083;DHT22;7640;53.116;6.878;2023-02-18T03:19:06;9.00;99.90
15083;DHT22;7640;53.116;6.878;2023-02-18T03:21:43;9.00;99.90
15083;DHT22;7640;53.116;6.878;2023-02-18T03:24:16;9.00;99.90
15083;DHT22;7640;53.116;6.878;2023-02-18T03:26:49;9.00;99.90
15083;DHT22;7640;53.116;6.878;2023-02-18T03:29:21;9.00;99.90
15083;DHT22;7640;53.116;6.878;2023-02-18T03:31:54;9.00;99.90
15083;DHT22;7640;53.116;6.878;2023-02-18T03:34:28;9.00;99.90
15083;DHT22;7640;53.116;6.878;2023-02-18T03:36:58;9.00;99.90
15083;DHT22;7640;53.116;6.878;2023-02-18T03:39:29;9.00;99.90
15083;DHT22;7640;53.116;6.878;2023-02-18T03:41:58;9.10;99.90
15083;DHT22;7640;53.116;6.878;2023-02-18T03:44:30;9.10;99.90
15083;DHT22;7640;53.116;6.878;2023-02-18T03:46:58;9.10;99.90
15083;DHT22;7640;53.116;6.878;2023-02-18T03:49:27;9.10;99.90
15083;DHT22;7640;53.116;6.878;2023-02-18T03:51:55;9.10;99.90
15083;DHT22;7640;53.116;6.878;2023-02-18T03:54:23;9.20;99.90
15083;DHT22;7640;53.116;6.878;2023-02-18T03:56:52;9.20;99.90
15083;DHT22;7640;53.116;6.878;2023-02-18T03:59:20;9.20;99.90
15083;DHT22;7640;53.116;6.878;2023-02-18T04:01:50;9.20;99.90
15083;DHT22;7640;53.116;6.878;2023-02-18T04:04:18;9.20;99.90
15083;DHT22;7640;53.116;6.878;2023-02-18T04:06:46;9.20;99.90
15083;DHT22;7640;53.116;6.878;2023-02-18T04:09:16;9.20;99.90
15083;DHT22;7640;53.116;6.878;2023-02-18T04:11:44;9.20;99.90
15083;DHT22;7640;53.116;6.878;2023-02-18T04:14:13;9.20;99.90
15083;DHT22;7640;53.116;6.878;2023-02-18T04:16:41;9.20;99.90
15083;DHT22;7640;53.116;6.878;2023-02-18T04:19:11;9.20;99.90
15083;DHT22;7640;53.116;6.878;2023-02-18T04:21:40;9.30;99.90
15083;DHT22;7640;53.116;6.878;2023-02-18T04:24:08;9.30;99.90
15083;DHT22;7640;53.116;6.878;2023-02-18T04:26:36;9.30;99.90
15083;DHT22;7640;53.116;6.878;2023-02-18T04:29:05;9.20;99.90
15083;DHT22;7640;53.116;6.878;2023-02-18T04:31:33;9.20;99.90
15083;DHT22;7640;53.116;6.878;2023-02-18T04:34:02;9.20;99.90
15083;DHT22;7640;53.116;6.878;2023-02-18T04:36:32;9.20;99.90
15083;DHT22;7640;53.116;6.878;2023-02-18T04:39:00;9.20;99.90
15083;DHT22;7640;53.116;6.878;2023-02-18T04:41:29;9.20;99.90
15083;DHT22;7640;53.116;6.878;2023-02-18T04:43:57;9.20;99.90
15083;DHT22;7640;53.116;6.878;2023-02-18T04:46:26;9.20;99.90
15083;DHT22;7640;53.116;6.878;2023-02-18T04:48:55;9.20;99.90
15083;DHT22;7640;53.116;6.878;2023-02-18T04:51:23;9.20;99.90
15083;DHT22;7640;53.116;6.878;2023-02-18T04:53:53;9.20;99.90
15083;DHT22;7640;53.116;6.878;2023-02-18T04:56:21;9.20;99.90
15083;DHT22;7640;53.116;6.878;2023-02-18T04:58:49;9.20;99.90
15083;DHT22;7640;53.116;6.878;2023-02-18T05:01:18;9.20;99.90
15083;DHT22;7640;53.116;6.878;2023-02-18T05:03:46;9.20;99.90
15083;DHT22;7640;53.116;6.878;2023-02-18T05:06:14;9.20;99.90
15083;DHT22;7640;53.116;6.878;2023-02-18T05:08:43;9.30;99.90
15083;DHT22;7640;53.116;6.878;2023-02-18T05:11:12;9.30;99.90
15083;DHT22;7640;53.116;6.878;2023-02-18T05:13:41;9.30;99.90
15083;DHT22;7640;53.116;6.878;2023-02-18T05:16:09;9.30;99.90
15083;DHT22;7640;53.116;6.878;2023-02-18T05:18:38;9.30;99.90
15083;DHT22;7640;53.116;6.878;2023-02-18T05:21:06;9.30;99.90
15083;DHT22;7640;53.116;6.878;2023-02-18T05:23:35;9.30;99.90
15083;DHT22;7640;53.116;6.878;2023-02-18T05:26:04;9.30;99.90
15083;DHT22;7640;53.116;6.878;2023-02-18T05:28:34;9.30;99.90
15083;DHT22;7640;53.116;6.878;2023-02-18T05:31:02;9.40;99.90
15083;DHT22;7640;53.116;6.878;2023-02-18T05:33:31;9.40;99.90
15083;DHT22;7640;53.116;6.878;2023-02-18T05:36:00;9.40;99.90
15083;DHT22;7640;53.116;6.878;2023-02-18T05:38:28;9.40;99.90
15083;DHT22;7640;53.116;6.878;2023-02-18T05:40:57;9.40;99.90
15083;DHT22;7640;53.116;6.878;2023-02-18T05:43:25;9.40;99.90
15083;DHT22;7640;53.116;6.878;2023-02-18T05:45:55;9.40;99.90
15083;DHT22;7640;53.116;6.878;2023-02-18T05:48:23;9.50;99.90
15083;DHT22;7640;53.116;6.878;2023-02-18T05:50:53;9.50;99.90
15083;DHT22;7640;53.116;6.878;2023-02-18T05:53:21;9.50;99.90
15083;DHT22;7640;53.116;6.878;2023-02-18T05:55:50;9.50;99.90
15083;DHT22;7640;53.116;6.878;2023-02-18T05:58:18;9.50;99.90
15083;DHT22;7640;53.116;6.878;2023-02-18T06:00:46;9.50;99.90
15083;DHT22;7640;53.116;6.878;2023-02-18T06:03:16;9.60;99.90
15083;DHT22;7640;53.116;6.878;2023-02-18T06:05:48;9.60;99.90
15083;DHT22;7640;53.116;6.878;2023-02-18T06:08:17;9.60;99.90
15083;DHT22;7640;53.116;6.878;2023-02-18T06:10:46;9.60;99.90
15083;DHT22;7640;53.116;6.878;2023-02-18T06:13:14;9.60;99.90
15083;DHT22;7640;53.116;6.878;2023-02-18T06:15:43;9.60;99.90
15083;DHT22;7640;53.116;6.878;2023-02-18T06:18:11;9.70;99.90
15083;DHT22;7640;53.116;6.878;2023-02-18T06:20:41;9.70;99.90
15083;DHT22;7640;53.116;6.878;2023-02-18T06:23:09;9.70;99.90
15083;DHT22;7640;53.116;6.878;2023-02-18T06:25:38;9.70;99.90
15083;DHT22;7640;53.116;6.878;2023-02-18T06:28:06;9.70;99.90
15083;DHT22;7640;53.116;6.878;2023-02-18T06:30:35;9.70;99.90
15083;DHT22;7640;53.116;6.878;2023-02-18T06:33:04;9.80;99.90
15083;DHT22;7640;53.116;6.878;2023-02-18T06:35:32;9.80;99.90
15083;DHT22;7640;53.116;6.878;2023-02-18T06:38:03;9.80;99.90
15083;DHT22;7640;53.116;6.878;2023-02-18T06:40:31;9.80;99.90
15083;DHT22;7640;53.116;6.878;2023-02-18T06:43:00;9.90;99.90
15083;DHT22;7640;53.116;6.878;2023-02-18T06:45:28;9.90;99.90
15083;DHT22;7640;53.116;6.878;2023-02-18T06:47:56;9.90;99.90
15083;DHT22;7640;53.116;6.878;2023-02-18T06:50:25;9.90;99.90
15083;DHT22;7640;53.116;6.878;2023-02-18T06:52:53;10.00;99.90
15083;DHT22;7640;53.116;6.878;2023-02-18T06:55:23;10.00;99.90
15083;DHT22;7640;53.116;6.878;2023-02-18T06:57:51;10.00;99.90
15083;DHT22;7640;53.116;6.878;2023-02-18T07:00:20;10.10;99.90
15083;DHT22;7640;53.116;6.878;2023-02-18T07:02:49;10.10;99.90
15083;DHT22;7640;53.116;6.878;2023-02-18T07:05:18;10.20;99.90
15083;DHT22;7640;53.116;6.878;2023-02-18T07:07:46;10.20;99.90
15083;DHT22;7640;53.116;6.878;2023-02-18T07:10:15;10.20;99.90
15083;DHT22;7640;53.116;6.878;2023-02-18T07:12:44;10.30;99.90
15083;DHT22;7640;53.116;6.878;2023-02-18T07:15:13;10.30;99.90
15083;DHT22;7640;53.116;6.878;2023-02-18T07:17:41;10.30;99.90
15083;DHT22;7640;53.116;6.878;2023-02-18T07:20:10;10.40;99.90
15083;DHT22;7640;53.116;6.878;2023-02-18T07:22:39;10.40;99.90
15083;DHT22;7640;53.116;6.878;2023-02-18T07:25:07;10.40;99.90
15083;DHT22;7640;53.116;6.878;2023-02-18T07:27:36;10.40;99.90
15083;DHT22;7640;53.116;6.878;2023-02-18T07:30:07;10.40;99.90
15083;DHT22;7640;53.116;6.878;2023-02-18T07:32:36;10.50;99.90
15083;DHT22;7640;53.116;6.878;2023-02-18T07:35:05;10.50;99.90
15083;DHT22;7640;53.116;6.878;2023-02-18T07:37:34;10.50;99.90
15083;DHT22;7640;53.116;6.878;2023-02-18T07:40:03;10.50;99.90
15083;DHT22;7640;53.116;6.878;2023-02-18T07:42:32;10.60;99.90
15083;DHT22;7640;53.116;6.878;2023-02-18T07:45:01;10.60;99.90
15083;DHT22;7640;53.116;6.878;2023-02-18T07:47:31;10.60;99.90
15083;DHT22;7640;53.116;6.878;2023-02-18T07:49:59;10.70;99.90
15083;DHT22;7640;53.116;6.878;2023-02-18T07:52:27;10.60;99.90
15083;DHT22;7640;53.116;6.878;2023-02-18T07:54:56;10.70;99.90
15083;DHT22;7640;53.116;6.878;2023-02-18T07:57:24;10.70;99.90
15083;DHT22;7640;53.116;6.878;2023-02-18T07:59:52;10.70;99.90
15083;DHT22;7640;53.116;6.878;2023-02-18T08:02:22;10.70;99.90
15083;DHT22;7640;53.116;6.878;2023-02-18T08:04:52;10.70;99.90
15083;DHT22;7640;53.116;6.878;2023-02-18T08:07:22;10.70;99.90
15083;DHT22;7640;53.116;6.878;2023-02-18T08:09:50;10.80;99.90
15083;DHT22;7640;53.116;6.878;2023-02-18T08:12:18;10.80;99.90
15083;DHT22;7640;53.116;6.878;2023-02-18T08:14:47;10.80;99.90
15083;DHT22;7640;53.116;6.878;2023-02-18T08:17:15;10.80;99.90
15083;DHT22;7640;53.116;6.878;2023-02-18T08:19:43;10.80;99.90
15083;DHT22;7640;53.116;6.878;2023-02-18T08:22:13;10.80;99.90
15083;DHT22;7640;53.116;6.878;2023-02-18T08:24:41;10.80;99.90
15083;DHT22;7640;53.116;6.878;2023-02-18T08:27:10;10.80;99.90
15083;DHT22;7640;53.116;6.878;2023-02-18T08:29:39;10.70;99.90
15083;DHT22;7640;53.116;6.878;2023-02-18T08:32:07;10.70;99.90
15083;DHT22;7640;53.116;6.878;2023-02-18T08:34:35;10.70;99.90
15083;DHT22;7640;53.116;6.878;2023-02-18T08:37:04;10.70;99.90
15083;DHT22;7640;53.116;6.878;2023-02-18T08:39:35;10.60;99.90
15083;DHT22;7640;53.116;6.878;2023-02-18T08:42:05;10.60;99.90
15083;DHT22;7640;53.116;6.878;2023-02-18T08:44:34;10.60;99.90
15083;DHT22;7640;53.116;6.878;2023-02-18T08:47:02;10.60;99.90
15083;DHT22;7640;53.116;6.878;2023-02-18T08:49:52;10.60;99.90
15083;DHT22;7640;53.116;6.878;2023-02-18T08:52:21;10.50;99.90
15083;DHT22;7640;53.116;6.878;2023-02-18T08:54:51;10.50;99.90
15083;DHT22;7640;53.116;6.878;2023-02-18T08:57:19;10.40;99.90
15083;DHT22;7640;53.116;6.878;2023-02-18T08:59:47;10.40;99.90
15083;DHT22;7640;53.116;6.878;2023-02-18T09:02:16;10.40;99.90
15083;DHT22;7640;53.116;6.878;2023-02-18T09:04:44;10.40;99.90
15083;DHT22;7640;53.116;6.878;2023-02-18T09:07:12;10.40;99.90
15083;DHT22;7640;53.116;6.878;2023-02-18T09:09:41;10.40;99.90
15083;DHT22;7640;53.116;6.878;2023-02-18T09:12:11;10.40;99.90
15083;DHT22;7640;53.116;6.878;2023-02-18T09:14:39;10.40;99.90
15083;DHT22;7640;53.116;6.878;2023-02-18T09:17:08;10.40;99.90
15083;DHT22;7640;53.116;6.878;2023-02-18T09:19:36;10.40;99.90
15083;DHT22;7640;53.116;6.878;2023-02-18T09:22:05;10.40;99.90
15083;DHT22;7640;53.116;6.878;2023-02-18T09:24:36;10.40;99.90
15083;DHT22;7640;53.116;6.878;2023-02-18T09:27:05;10.40;99.90
15083;DHT22;7640;53.116;6.878;2023-02-18T09:29:39;10.40;99.90
15083;DHT22;7640;53.116;6.878;2023-02-18T09:32:09;10.40;99.90
15083;DHT22;7640;53.116;6.878;2023-02-18T09:34:51;10.40;99.90
15083;DHT22;7640;53.116;6.878;2023-02-18T09:37:19;10.40;99.90
15083;DHT22;7640;53.116;6.878;2023-02-18T09:39:47;10.40;99.90
15083;DHT22;7640;53.116;6.878;2023-02-18T09:42:26;10.40;99.90
15083;DHT22;7640;53.116;6.878;2023-02-18T09:45:00;10.40;99.90
15083;DHT22;7640;53.116;6.878;2023-02-18T09:47:33;10.40;99.90
15083;DHT22;7640;53.116;6.878;2023-02-18T09:50:07;10.50;99.90
15083;DHT22;7640;53.116;6.878;2023-02-18T09:52:39;10.40;99.90
15083;DHT22;7640;53.116;6.878;2023-02-18T09:55:17;10.40;99.90
15083;DHT22;7640;53.116;6.878;2023-02-18T09:57:49;10.40;99.90
15083;DHT22;7640;53.116;6.878;2023-02-18T10:00:23;10.40;99.90
15083;DHT22;7640;53.116;6.878;2023-02-18T10:02:56;10.40;99.90
15083;DHT22;7640;53.116;6.878;2023-02-18T10:05:27;10.40;99.90
15083;DHT22;7640;53.116;6.878;2023-02-18T10:08:00;10.40;99.90
15083;DHT22;7640;53.116;6.878;2023-02-18T10:10:36;10.40;99.90
15083;DHT22;7640;53.116;6.878;2023-02-18T10:13:11;10.40;99.90
15083;DHT22;7640;53.116;6.878;2023-02-18T10:15:43;10.40;99.90
15083;DHT22;7640;53.116;6.878;2023-02-18T10:18:24;10.40;99.90
15083;DHT22;7640;53.116;6.878;2023-02-18T10:21:05;10.40;99.90
15083;DHT22;7640;53.116;6.878;2023-02-18T10:23:37;10.40;99.90
15083;DHT22;7640;53.116;6.878;2023-02-18T10:26:11;10.40;99.90
15083;DHT22;7640;53.116;6.878;2023-02-18T10:28:42;10.40;99.90
15083;DHT22;7640;53.116;6.878;2023-02-18T10:31:16;10.40;99.90
15083;DHT22;7640;53.116;6.878;2023-02-18T10:33:53;10.50;99.90
15083;DHT22;7640;53.116;6.878;2023-02-18T10:36:31;10.50;99.90
15083;DHT22;7640;53.116;6.878;2023-02-18T10:39:24;10.60;99.90
15083;DHT22;7640;53.116;6.878;2023-02-18T10:42:24;10.60;99.90
15083;DHT22;7640;53.116;6.878;2023-02-18T10:45:06;10.60;99.90
15083;DHT22;7640;53.116;6.878;2023-02-18T10:47:47;10.70;99.90
15083;DHT22;7640;53.116;6.878;2023-02-18T10:50:27;10.70;99.90
15083;DHT22;7640;53.116;6.878;2023-02-18T10:53:01;10.70;99.90
15083;DHT22;7640;53.116;6.878;2023-02-18T10:55:38;10.80;99.90
15083;DHT22;7640;53.116;6.878;2023-02-18T10:58:24;10.80;99.90
15083;DHT22;7640;53.116;6.878;2023-02-18T11:00:54;10.80;99.90
15083;DHT22;7640;53.116;6.878;2023-02-18T11:03:25;10.80;99.90
15083;DHT22;7640;53.116;6.878;2023-02-18T11:06:03;10.80;99.90
15083;DHT22;7640;53.116;6.878;2023-02-18T11:08:39;10.80;99.90
15083;DHT22;7640;53.116;6.878;2023-02-18T11:11:16;10.80;99.90
15083;DHT22;7640;53.116;6.878;2023-02-18T11:13:52;10.80;99.90
15083;DHT22;7640;53.116;6.878;2023-02-18T11:16:22;10.80;99.90
15083;DHT22;7640;53.116;6.878;2023-02-18T11:18:52;10.80;99.90
15083;DHT22;7640;53.116;6.878;2023-02-18T11:21:25;10.90;99.90
15083;DHT22;7640;53.116;6.878;2023-02-18T11:23:57;10.90;99.90
15083;DHT22;7640;53.116;6.878;2023-02-18T11:26:35;11.00;99.90
15083;DHT22;7640;53.116;6.878;2023-02-18T11:29:06;11.00;99.90
15083;DHT22;7640;53.116;6.878;2023-02-18T11:31:41;11.00;99.90
15083;DHT22;7640;53.116;6.878;2023-02-18T11:34:17;11.00;99.90
15083;DHT22;7640;53.116;6.878;2023-02-18T11:36:48;11.10;99.90
15083;DHT22;7640;53.116;6.878;2023-02-18T11:39:20;11.10;99.90
15083;DHT22;7640;53.116;6.878;2023-02-18T11:41:54;11.10;99.90
15083;DHT22;7640;53.116;6.878;2023-02-18T11:44:27;11.20;99.90
15083;DHT22;7640;53.116;6.878;2023-02-18T11:46:59;11.20;99.90
15083;DHT22;7640;53.116;6.878;2023-02-18T11:49:31;11.30;99.90
15083;DHT22;7640;53.116;6.878;2023-02-18T11:52:13;11.30;99.90
15083;DHT22;7640;53.116;6.878;2023-02-18T11:54:59;11.30;99.90
15083;DHT22;7640;53.116;6.878;2023-02-18T11:57:30;11.40;99.90
15083;DHT22;7640;53.116;6.878;2023-02-18T12:00:00;11.40;99.90
15083;DHT22;7640;53.116;6.878;2023-02-18T12:02:33;11.40;99.90
15083;DHT22;7640;53.116;6.878;2023-02-18T12:05:10;11.40;99.90
15083;DHT22;7640;53.116;6.878;2023-02-18T12:07:44;11.40;99.90
15083;DHT22;7640;53.116;6.878;2023-02-18T12:10:17;11.50;99.90
15083;DHT22;7640;53.116;6.878;2023-02-18T12:12:53;11.50;99.90
15083;DHT22;7640;53.116;6.878;2023-02-18T12:15:36;11.50;99.90
15083;DHT22;7640;53.116;6.878;2023-02-18T12:18:23;11.50;99.90
15083;DHT22;7640;53.116;6.878;2023-02-18T12:21:14;11.50;99.90
15083;DHT22;7640;53.116;6.878;2023-02-18T12:23:57;11.50;99.90
15083;DHT22;7640;53.116;6.878;2023-02-18T12:26:38;11.50;99.90
15083;DHT22;7640;53.116;6.878;2023-02-18T12:29:29;11.60;99.90
15083;DHT22;7640;53.116;6.878;2023-02-18T12:32:18;11.60;99.90
15083;DHT22;7640;53.116;6.878;2023-02-18T12:35:08;11.70;99.90
15083;DHT22;7640;53.116;6.878;2023-02-18T12:37:55;11.70;99.90
15083;DHT22;7640;53.116;6.878;2023-02-18T12:40:44;11.80;99.90
15083;DHT22;7640;53.116;6.878;2023-02-18T12:43:28;11.80;99.90
15083;DHT22;7640;53.116;6.878;2023-02-18T12:46:39;11.80;99.90
15083;DHT22;7640;53.116;6.878;2023-02-18T12:49:46;11.80;99.90
15083;DHT22;7640;53.116;6.878;2023-02-18T12:52:31;11.80;99.90
15083;DHT22;7640;53.116;6.878;2023-02-18T12:55:23;11.70;99.90
15083;DHT22;7640;53.116;6.878;2023-02-18T12:58:04;11.70;99.90
15083;DHT22;7640;53.116;6.878;2023-02-18T13:00:48;11.80;99.90
15083;DHT22;7640;53.116;6.878;2023-02-18T13:06:59;11.90;99.90
15083;DHT22;7640;53.116;6.878;2023-02-18T13:09:46;12.00;99.90
15083;DHT22;7640;53.116;6.878;2023-02-18T13:12:35;12.10;99.90
15083;DHT22;7640;53.116;6.878;2023-02-18T13:15:15;12.20;99.90
15083;DHT22;7640;53.116;6.878;2023-02-18T13:17:46;12.20;99.90
15083;DHT22;7640;53.116;6.878;2023-02-18T13:20:21;12.30;99.90
15083;DHT22;7640;53.116;6.878;2023-02-18T13:22:53;12.30;99.90
15083;DHT22;7640;53.116;6.878;2023-02-18T13:25:22;12.40;99.90
15083;DHT22;7640;53.116;6.878;2023-02-18T13:27:59;12.40;99.90
15083;DHT22;7640;53.116;6.878;2023-02-18T13:30:41;12.40;99.90
15083;DHT22;7640;53.116;6.878;2023-02-18T13:33:18;12.40;99.90
15083;DHT22;7640;53.116;6.878;2023-02-18T13:35:56;12.40;99.90
15083;DHT22;7640;53.116;6.878;2023-02-18T13:38:54;12.40;99.90
15083;DHT22;7640;53.116;6.878;2023-02-18T13:41:25;12.40;99.90
15083;DHT22;7640;53.116;6.878;2023-02-18T13:43:55;12.40;99.90
15083;DHT22;7640;53.116;6.878;2023-02-18T13:46:24;12.40;99.90
15083;DHT22;7640;53.116;6.878;2023-02-18T13:49:03;12.40;99.90
15083;DHT22;7640;53.116;6.878;2023-02-18T13:51:38;12.40;99.90
15083;DHT22;7640;53.116;6.878;2023-02-18T13:54:17;12.40;99.90
15083;DHT22;7640;53.116;6.878;2023-02-18T13:56:51;12.40;99.90
15083;DHT22;7640;53.116;6.878;2023-02-18T13:59:27;12.20;99.90
15083;DHT22;7640;53.116;6.878;2023-02-18T14:02:30;12.20;99.90
15083;DHT22;7640;53.116;6.878;2023-02-18T14:05:18;12.20;99.90
15083;DHT22;7640;53.116;6.878;2023-02-18T14:07:50;12.20;99.90
15083;DHT22;7640;53.116;6.878;2023-02-18T14:10:32;12.20;99.90
15083;DHT22;7640;53.116;6.878;2023-02-18T14:13:22;12.30;99.90
15083;DHT22;7640;53.116;6.878;2023-02-18T14:15:56;12.30;99.90
15083;DHT22;7640;53.116;6.878;2023-02-18T14:18:33;12.30;99.90
15083;DHT22;7640;53.116;6.878;2023-02-18T14:21:35;12.30;99.90
15083;DHT22;7640;53.116;6.878;2023-02-18T14:24:06;12.20;99.90
15083;DHT22;7640;53.116;6.878;2023-02-18T14:26:42;12.10;99.90
15083;DHT22;7640;53.116;6.878;2023-02-18T14:29:16;12.10;99.90
15083;DHT22;7640;53.116;6.878;2023-02-18T14:31:53;12.10;99.90
15083;DHT22;7640;53.116;6.878;2023-02-18T14:41:11;12.10;99.90
15083;DHT22;7640;53.116;6.878;2023-02-18T14:47:16;12.10;99.90
15083;DHT22;7640;53.116;6.878;2023-02-18T14:49:51;12.10;99.90
15083;DHT22;7640;53.116;6.878;2023-02-18T14:52:28;12.10;99.90
15083;DHT22;7640;53.116;6.878;2023-02-18T14:55:00;12.00;99.90
15083;DHT22;7640;53.116;6.878;2023-02-18T14:57:35;12.00;99.90
15083;DHT22;7640;53.116;6.878;2023-02-18T15:00:14;12.00;99.90
15083;DHT22;7640;53.116;6.878;2023-02-18T15:02:47;11.90;99.90
15083;DHT22;7640;53.116;6.878;2023-02-18T15:05:19;11.80;99.90
15083;DHT22;7640;53.116;6.878;2023-02-18T15:07:59;11.70;99.90
15083;DHT22;7640;53.116;6.878;2023-02-18T15:10:34;11.50;99.90
15083;DHT22;7640;53.116;6.878;2023-02-18T15:13:08;11.40;99.90
15083;DHT22;7640;53.116;6.878;2023-02-18T15:15:42;11.20;99.90
15083;DHT22;7640;53.116;6.878;2023-02-18T15:18:22;11.10;99.90
15083;DHT22;7640;53.116;6.878;2023-02-18T15:20:55;11.10;99.90
15083;DHT22;7640;53.116;6.878;2023-02-18T15:23:23;11.10;99.90
15083;DHT22;7640;53.116;6.878;2023-02-18T15:25:52;11.10;99.90
15083;DHT22;7640;53.116;6.878;2023-02-18T15:28:23;11.00;99.90
15083;DHT22;7640;53.116;6.878;2023-02-18T15:30:55;11.10;99.90
15083;DHT22;7640;53.116;6.878;2023-02-18T15:33:26;11.10;99.90
15083;DHT22;7640;53.116;6.878;2023-02-18T15:36:00;11.10;99.90
15083;DHT22;7640;53.116;6.878;2023-02-18T15:38:29;11.10;99.90
15083;DHT22;7640;53.116;6.878;2023-02-18T15:40:58;11.20;99.90
15083;DHT22;7640;53.116;6.878;2023-02-18T15:43:27;11.10;99.90
15083;DHT22;7640;53.116;6.878;2023-02-18T15:45:57;11.20;99.90
15083;DHT22;7640;53.116;6.878;2023-02-18T15:48:34;11.10;99.90
15083;DHT22;7640;53.116;6.878;2023-02-18T15:51:12;11.10;99.90
15083;DHT22;7640;53.116;6.878;2023-02-18T15:53:45;11.10;99.90
15083;DHT22;7640;53.116;6.878;2023-02-18T15:56:19;11.10;99.90
15083;DHT22;7640;53.116;6.878;2023-02-18T15:58:49;11.10;99.90
15083;DHT22;7640;53.116;6.878;2023-02-18T16:01:26;11.10;99.90
15083;DHT22;7640;53.116;6.878;2023-02-18T16:03:56;11.00;99.90
15083;DHT22;7640;53.116;6.878;2023-02-18T16:06:28;11.10;99.90
15083;DHT22;7640;53.116;6.878;2023-02-18T16:08:59;11.00;99.90
15083;DHT22;7640;53.116;6.878;2023-02-18T16:11:33;11.00;99.90
15083;DHT22;7640;53.116;6.878;2023-02-18T16:14:03;11.00;99.90
15083;DHT22;7640;53.116;6.878;2023-02-18T16:16:33;11.00;99.90
15083;DHT22;7640;53.116;6.878;2023-02-18T16:19:04;11.00;99.90
15083;DHT22;7640;53.116;6.878;2023-02-18T16:21:36;10.90;99.90
15083;DHT22;7640;53.116;6.878;2023-02-18T16:24:22;10.90;99.90
15083;DHT22;7640;53.116;6.878;2023-02-18T16:26:53;10.90;99.90
15083;DHT22;7640;53.116;6.878;2023-02-18T16:29:26;10.80;99.90
15083;DHT22;7640;53.116;6.878;2023-02-18T16:32:01;10.80;99.90
15083;DHT22;7640;53.116;6.878;2023-02-18T16:34:31;10.70;99.90
15083;DHT22;7640;53.116;6.878;2023-02-18T16:37:01;10.70;99.90
15083;DHT22;7640;53.116;6.878;2023-02-18T16:39:48;10.70;99.90
15083;DHT22;7640;53.116;6.878;2023-02-18T16:42:20;10.70;99.90
15083;DHT22;7640;53.116;6.878;2023-02-18T16:44:49;10.60;99.90
15083;DHT22;7640;53.116;6.878;2023-02-18T16:47:18;10.60;99.90
15083;DHT22;7640;53.116;6.878;2023-02-18T16:49:50;10.60;99.90
15083;DHT22;7640;53.116;6.878;2023-02-18T16:52:18;10.60;99.90
15083;DHT22;7640;53.116;6.878;2023-02-18T16:54:47;10.60;99.90